WetterOnline ( https://www.wetteronline.de )

Wetter aktuell Delligsen

Aktuelles Wetter: Alfeld (148m)

6-stündlich | Neueste Meldungen
Ortszeit Temperatur Wetter
Mi, 19.06. 14:00 28.7° C wolkenlos
Mi, 19.06. 8:00 20.5° C bedeckt
Mi, 19.06. 2:00 17.7° C bedeckt
Di, 18.06. 20:00 23.0° C wolkig
Di, 18.06. 14:00 26.9° C wolkenlos
Di, 18.06. 8:00 18.8° C wolkenlos
Di, 18.06. 2:00 14.3° C wolkenlos
Mo, 17.06. 20:00 23.3° C wolkenlos
Ortszeit Temperatur Wetter
Mi, 19.06. 16:30 23.8° C wolkig
Mi, 19.06. 16:20 23.8° C wolkig
Mi, 19.06. 16:10 24.2° C bewölkt
Mi, 19.06. 16:00 24.6° C bewölkt
Mi, 19.06. 15:50 24.6° C bewölkt
Mi, 19.06. 15:40 25.9° C bewölkt
Mi, 19.06. 15:30 27.9° C leicht bewölkt
Mi, 19.06. 15:00 29.6° C wolkenlos
Mi, 19.06. 14:30 28.9° C wolkenlos
Mi, 19.06. 14:00 28.7° C wolkenlos
Mi, 19.06. 13:30 29.1° C fast wolkenlos
Ortszeit Relative Feuchte Sichtweite
Mi, 19.06. 14:00 39% 55 km
Mi, 19.06. 8:00 75% 40 km
Mi, 19.06. 2:00 86% 35 km
Di, 18.06. 20:00 75% 65 km
Di, 18.06. 14:00 46% 60 km
Di, 18.06. 8:00 79% 45 km
Di, 18.06. 2:00 95% 17 km
Mo, 17.06. 20:00 58% 50 km
Ortszeit Relative Feuchte Sichtweite
Mi, 19.06. 16:30 53% 65 km
Mi, 19.06. 16:20 53% -
Mi, 19.06. 16:10 50% -
Mi, 19.06. 16:00 71% 60 km
Mi, 19.06. 15:50 71% -
Mi, 19.06. 15:40 57% -
Mi, 19.06. 15:30 42% >70 km
Mi, 19.06. 15:00 37% 35 km
Mi, 19.06. 14:30 41% 55 km
Mi, 19.06. 14:00 39% 55 km
Mi, 19.06. 13:30 44% 50 km
Ortszeit Niederschlagsmenge Niederschlagsart
Mi, 19.06. 14:00 0.0 l/m2 in 6 Std. -
Mi, 19.06. 8:00 0.0 l/m2 in 12 Std. -
Mi, 19.06. 2:00 0.0 l/m2 in 6 Std. -
Di, 18.06. 20:00 0.0 l/m2 in 12 Std. -
Di, 18.06. 14:00 0.0 l/m2 in 6 Std. -
Di, 18.06. 8:00 0.0 l/m2 in 12 Std. -
Di, 18.06. 2:00 0.0 l/m2 in 6 Std. -
Mo, 17.06. 20:00 0.1 l/m2 in 12 Std. -
Ortszeit Niederschlagsmenge Niederschlagsart
Mi, 19.06. 16:30 0.0 l/m2 in 1 Std. -
Mi, 19.06. 16:20 keine Meldung -
Mi, 19.06. 16:10 keine Meldung -
Mi, 19.06. 16:00 0.0 l/m2 in 1 Std. -
Mi, 19.06. 15:50 keine Meldung -
Mi, 19.06. 15:40 keine Meldung -
Mi, 19.06. 15:30 0.0 l/m2 in 1 Std. -
Mi, 19.06. 15:00 0.0 l/m2 in 1 Std. -
Mi, 19.06. 14:30 0.0 l/m2 in 1 Std. -
Mi, 19.06. 14:00 0.0 l/m2 in 1 Std. -
Mi, 19.06. 13:30 0.0 l/m2 in 1 Std. -
Ortszeit Stärke Spitze Richtung
km/h Bft. km/h Grad Sektor
Mi, 19.06. 14:00 18 3 32 150° SO
Mi, 19.06. 8:00 9 2 13 130° SO
Mi, 19.06. 2:00 7 2 11 130° SO
Di, 18.06. 20:00 0 0 29 - -
Di, 18.06. 14:00 13 3 30 150° SO
Di, 18.06. 8:00 9 2 15 130° SO
Di, 18.06. 2:00 4 1 11 140° SO
Mo, 17.06. 20:00 7 2 22 120° SO
Ortszeit Stärke Spitze Richtung
km/h Bft. km/h Grad Sektor
Mi, 19.06. 16:30 18 3 40 280° W
Mi, 19.06. 16:20 18 3 - 280° W
Mi, 19.06. 16:10 22 4 - 290° W
Mi, 19.06. 16:00 4 1 29 230° SW
Mi, 19.06. 15:50 4 1 - 230° SW
Mi, 19.06. 15:40 7 2 - 170° S
Mi, 19.06. 15:30 15 3 30 150° SO
Mi, 19.06. 15:00 13 3 30 170° S
Mi, 19.06. 14:30 15 3 28 150° SO
Mi, 19.06. 14:00 18 3 32 150° SO
Mi, 19.06. 13:30 11 2 28 150° SO
Ortszeit Untergrenze Bedeckung Gattung
total tief tief mittel hoch
Mi, 19.06. 14:00 - 0/8 0/8 - - -
Mi, 19.06. 8:00 5100 m 8/8 8/8 - - -
Mi, 19.06. 2:00 5400 m 8/8 8/8 - - -
Di, 18.06. 20:00 7500 m 8/8 0/8 - - -
Di, 18.06. 14:00 10500 m 0/8 0/8 - - -
Di, 18.06. 8:00 - 0/8 0/8 - - -
Di, 18.06. 2:00 - 0/8 0/8 - - -
Mo, 17.06. 20:00 - 0/8 0/8 - - -
Ortszeit Bedeckungsgrad in Achtel und Wolkenuntergrenze
Mi, 19.06. 16:30 3(2100m) 7(4500m) 8(6000m)
Mi, 19.06. 16:20 3(2100m) 7(4500m) 8(6000m)
Mi, 19.06. 16:10 4(2100m) 6(4500m) 8(6300m)
Mi, 19.06. 16:00 6(6300m) 7(7500m) 8(7800m)
Mi, 19.06. 15:50 6(6300m) 7(7500m) 8(7800m)
Mi, 19.06. 15:40 4(6300m) 6(7800m) 8(8700m)
Mi, 19.06. 15:30 2(8400m) 6(9000m) 8(9000m)
Mi, 19.06. 15:00 1(9000m)
Mi, 19.06. 14:30 keine Wolken
Mi, 19.06. 14:00 keine Wolken
Mi, 19.06. 13:30 1(1500m)
Ortszeit Luftdruck NN (hPa) Tendenz (hPa in 3 Std.)
Mi, 19.06. 14:00 1008 - 0,8
Mi, 19.06. 8:00 1010 - 0,5
Mi, 19.06. 2:00 1012 - 0,9
Di, 18.06. 20:00 1012 - 1,0
Di, 18.06. 14:00 1015 - 1,3
Di, 18.06. 8:00 1017 - 0,3
Di, 18.06. 2:00 1019 - 0,2
Mo, 17.06. 20:00 1019 - 1,1
Ortszeit Luftdruck NN (hPa) Tendenz (hPa in 3 Std.)
Mi, 19.06. 16:30 1008 - 0,6
Mi, 19.06. 16:20 1008 keine Meldung
Mi, 19.06. 16:10 1007 keine Meldung
Mi, 19.06. 16:00 1007 - 0,9
Mi, 19.06. 15:50 1007 keine Meldung
Mi, 19.06. 15:40 1007 keine Meldung
Mi, 19.06. 15:30 1007 - 0,7
Mi, 19.06. 15:00 1007 - 1,1
Mi, 19.06. 14:30 1007 - 1,0
Mi, 19.06. 14:00 1008 - 0,8
Mi, 19.06. 13:30 1008 - 0,7
Ortszeit Schneehöhe (cm)
Mi, 19.06. 14:00 -
Mi, 19.06. 8:00 -
Mi, 19.06. 2:00 -
Di, 18.06. 20:00 -
Di, 18.06. 14:00 -
Di, 18.06. 8:00 -
Di, 18.06. 2:00 -
Mo, 17.06. 20:00 -
Ortszeit Schneehöhe (cm)
Mi, 19.06. 16:30 -
Mi, 19.06. 16:20 -
Mi, 19.06. 16:10 -
Mi, 19.06. 16:00 -
Mi, 19.06. 15:50 -
Mi, 19.06. 15:40 -
Mi, 19.06. 15:30 -
Mi, 19.06. 15:00 -
Mi, 19.06. 14:30 -
Mi, 19.06. 14:00 -
Mi, 19.06. 13:30 -
Link zu dieser Seite / Seite empfehlen

Das Wetter in ...